Overview Statistics Trail Chart Weather Telemetry Raw packets
 

This is the latest recevied weather packets stored in our database for station/object EA2AFZ-W. If no packets are shown the sender has not sent any weather packets the latest 10 day(s).

<< 12 13 14 15 16 17 18 >>
Time Temp. Humidity Pressure Rain* Wind** Luminosity Snow
1787994936 22.78° C 57% 1018 hPa 0 mm - - -
1787993134 21.11° C 70% 1018 hPa 0 mm - - -
1787991331 19.44° C 69% 1018 hPa 0 mm - - -
1787989529 18.89° C 74% 1019 hPa 0 mm - - -
1787987727 18.89° C 75% 1018 hPa 0 mm - - -
1787985923 14.44° C 84% 1019 hPa 0 mm - - -
1787984130 14.44° C 78% 1018 hPa 0 mm - - -
1787982319 15° C 83% 1019 hPa 0 mm - - -
1787980521 15° C 75% 1018 hPa 0 mm - - -
1787978718 15° C 74% 1019 hPa 0 mm - - -
1787976912 15.56° C 74% 1019 hPa 0 mm - - -
1787975111 15.56° C 74% 1019 hPa 0 mm - - -
1787973310 16.11° C 72% 1019 hPa 0 mm - - -
1787971565 16.11° C 73% 1019 hPa 0 mm - - -
1787969763 16.11° C 72% 1019 hPa 0 mm - - -
1787967961 16.67° C 72% 1019 hPa 0 mm - - -
1787966159 16.67° C 73% 1020 hPa 0 mm - - -
1787964356 16.67° C 73% 1020 hPa 0 mm - - -
1787962554 17.22° C 71% 1020 hPa 0 mm - - -
1787960751 17.22° C 70% 1020 hPa 0 mm - - -
1787958949 17.78° C 68% 1020 hPa 0 mm - - -
1787957158 18.33° C 68% 1020 hPa 0 mm - - -
1787955345 18.89° C 67% 1020 hPa 0 mm - - -
1787953542 19.44° C 66% 1020 hPa 0 mm - - -
1787951740 19.44° C 65% 1020 hPa 0 mm - - -

* Rain latest hour (hover to see other rain measurements)
** Current wind speed in m/s (hover to see current wind gust speed)